Aérodrome :
LOGIN :

S'inscrire | Disclaimer

   EN    FR    IT 

 










Légende :    VFR   VFR Marginal   IFR   IFR Intensif   IFR Très Intensif
Visi : 
Plafond : 
>= 8 km
>= 3000ft
5 à 8 km
1000 à 3000 ft
1500m à 5 km
500 à 1000 ft
800 à 1500m
200 à 500 ft
< 800m
< 200 ft
Symboles :   Orages  Brouillard  Fortes neiges  Fortes précipitations  Vent > 20 kt
SIGMETs :   Divers  Orages  Givrage  Turbulence  Onde Orograph.  Cendres Volcan.







- Altitude de l'aérodrome : 17 ft
- Code IATA : MPL
- Voir les cartes d'approche


LFMT - Montpellier Méditerranée

DERNIER METAR :
  • 142200Z AUTO 03006KT 9000 BKN015 BKN041 14/13 Q1024 TEMPO RA BKN008

METARs EXPIRÉS :
  • 142130Z AUTO 04006KT 9999 BKN014 BKN042 BKN052 14/13 Q1024 TEMPO RA BKN008
  • 142100Z AUTO 04005KT 9999 FEW017 BKN041 BKN048 14/13 Q1024 TEMPO RA BKN008
  • 142030Z AUTO 03005KT 9999 BKN041 OVC047 15/13 Q1024 TEMPO RA BKN008
  • 142000Z AUTO 03006KT 9999 OVC040 15/13 Q1024 TEMPO 14010KT RA BKN008
  • 141930Z AUTO 04004KT 9999 OVC041 15/13 Q1024 TEMPO 14010KT RA BKN008
  • 141900Z AUTO 04004KT 9999 OVC043 16/14 Q1024 TEMPO 14010KT RA BKN008

TAF TAF LFMT
Valide du 14 à 21h jusqu'au 15 à 21h UTC


142000Z 1421/1521 06010KT 9999 BKN017
TEMPO 1421/1518 RA BKN008
ATIS : +33 4 67 13 11 70
Pas de NOTAMs connus pour ce terrain.



MET'MAP, la Météo Aéronautique d'un coup d'oeil ! - Copyright ORBIFLY Décembre 2007 - Disclaimer

ORBIFLY MET'MAP TEAM :

Programmation & Développement : Alexandra Zaïnal
Conception & Développement : Baudouin d'Aumeries
Co-Programmation & Développement : Marc-Olivier Méhu
Soutien technique & logistique : Manuel Goepfert

Contact : metmap@orbifly.com




SOURCES & CREDITS :

   NOAA